createdAt,value
2018-09-22T00:02:11.877Z,12.64
2018-09-22T00:04:40.856Z,12.66
2018-09-22T00:07:09.858Z,12.59
2018-09-22T00:09:38.842Z,12.58
2018-09-22T00:12:07.830Z,12.53
2018-09-22T00:14:36.798Z,12.57
2018-09-22T00:17:05.894Z,12.51
2018-09-22T00:19:34.942Z,12.54
2018-09-22T00:22:03.930Z,12.48
2018-09-22T00:24:32.906Z,12.51
2018-09-22T00:27:01.890Z,12.39
2018-09-22T00:29:30.897Z,12.41
2018-09-22T00:31:59.887Z,12.31
2018-09-22T00:34:29.090Z,12.32
2018-09-22T00:36:58.076Z,12.32
2018-09-22T00:39:27.042Z,12.33
2018-09-22T00:41:56.026Z,12.33
2018-09-22T00:44:25.046Z,12.37
2018-09-22T00:46:54.010Z,12.36
2018-09-22T00:49:23.097Z,12.36
2018-09-22T00:51:52.082Z,12.29
2018-09-22T00:54:21.079Z,12.44
2018-09-22T00:56:50.053Z,12.28
2018-09-22T00:59:19.214Z,12.30
2018-09-22T01:01:48.185Z,12.33
2018-09-22T01:04:17.181Z,12.38
2018-09-22T01:06:46.186Z,12.38
2018-09-22T01:09:15.176Z,12.47
2018-09-22T01:11:44.154Z,12.54
2018-09-22T01:14:13.135Z,12.49
2018-09-22T01:16:42.127Z,12.49
2018-09-22T01:19:11.109Z,12.44
2018-09-22T01:21:40.085Z,12.54
2018-09-22T01:24:09.070Z,12.45
2018-09-22T01:26:38.052Z,12.54
2018-09-22T01:29:07.049Z,12.51
2018-09-22T01:31:36.038Z,12.48
2018-09-22T01:34:05.021Z,12.49
2018-09-22T01:36:41.445Z,12.68
2018-09-22T01:39:11.177Z,12.66
2018-09-22T01:41:41.066Z,12.53
2018-09-22T01:44:10.148Z,12.48
2018-09-22T01:46:39.173Z,12.63
2018-09-22T01:49:08.245Z,12.61
2018-09-22T01:51:37.230Z,12.68
2018-09-22T01:54:06.221Z,12.70
2018-09-22T01:56:35.288Z,12.72
2018-09-22T01:59:04.294Z,12.69
2018-09-22T02:01:33.361Z,12.59
2018-09-22T02:04:02.366Z,12.61
2018-09-22T02:06:31.341Z,12.64
2018-09-22T02:09:00.364Z,12.66
2018-09-22T02:11:29.394Z,12.62
2018-09-22T02:13:58.360Z,12.61
2018-09-22T02:16:27.350Z,12.57
2018-09-22T02:18:56.341Z,12.51
2018-09-22T02:21:25.354Z,12.52
2018-09-22T02:23:54.335Z,12.54
2018-09-22T02:26:23.354Z,12.49
2018-09-22T02:28:52.343Z,12.52
2018-09-22T02:31:21.313Z,12.48
2018-09-22T02:33:50.287Z,12.38
2018-09-22T02:36:25.790Z,12.41
2018-09-22T02:38:54.771Z,12.34
2018-09-22T02:41:23.755Z,12.28
2018-09-22T02:43:52.782Z,12.15
2018-09-22T02:46:21.757Z,12.14
2018-09-22T02:48:50.734Z,12.07
2018-09-22T02:51:19.767Z,12.07
2018-09-22T02:53:48.749Z,12.09
2018-09-22T02:56:17.727Z,12.03
2018-09-22T02:58:46.722Z,12.02
2018-09-22T03:01:15.734Z,11.93
2018-09-22T03:03:44.672Z,11.94
2018-09-22T03:06:13.666Z,11.99
2018-09-22T03:08:42.687Z,11.98
2018-09-22T03:11:11.626Z,11.99
2018-09-22T03:13:40.650Z,12.10
2018-09-22T03:16:09.613Z,12.06
2018-09-22T03:18:38.638Z,12.03
2018-09-22T03:21:07.631Z,12.01
2018-09-22T03:23:36.606Z,12.05
2018-09-22T03:26:05.574Z,11.96
2018-09-22T03:28:34.546Z,11.99
2018-09-22T03:31:03.550Z,11.96
2018-09-22T03:33:32.510Z,11.79
2018-09-22T03:36:01.499Z,11.76
2018-09-22T03:38:30.470Z,11.88
2018-09-22T03:40:59.457Z,11.72
2018-09-22T03:43:28.433Z,11.59
2018-09-22T03:45:57.533Z,11.64
2018-09-22T03:48:26.498Z,11.78
2018-09-22T03:50:55.473Z,11.72
2018-09-22T03:53:24.837Z,11.80
2018-09-22T03:55:53.777Z,11.75
2018-09-22T03:58:22.747Z,11.76
2018-09-22T04:00:51.724Z,11.77
2018-09-22T04:03:20.725Z,11.77
2018-09-22T04:05:49.789Z,11.72
2018-09-22T04:08:18.770Z,11.69
2018-09-22T04:10:47.797Z,11.75
2018-09-22T04:13:16.753Z,11.68
2018-09-22T04:15:45.766Z,11.72
2018-09-22T04:18:14.732Z,11.66
2018-09-22T04:20:43.741Z,11.61
2018-09-22T04:23:12.713Z,11.65
2018-09-22T04:25:41.697Z,11.63
2018-09-22T04:28:10.670Z,11.64
2018-09-22T04:30:39.650Z,11.67
2018-09-22T04:33:08.631Z,11.67
2018-09-22T04:35:37.610Z,11.68
2018-09-22T04:38:06.582Z,11.64
2018-09-22T04:40:35.591Z,11.59
2018-09-22T04:43:04.558Z,11.60
2018-09-22T04:45:34.538Z,11.65
2018-09-22T04:48:03.523Z,11.60
2018-09-22T04:50:32.497Z,11.61
2018-09-22T04:53:01.477Z,11.63
2018-09-22T04:55:30.450Z,11.67
2018-09-22T04:57:59.418Z,11.62
2018-09-22T05:00:28.411Z,11.64
2018-09-22T05:02:57.391Z,11.67
2018-09-22T05:05:26.397Z,11.68
2018-09-22T05:07:55.461Z,11.67
2018-09-22T05:10:24.446Z,11.65
2018-09-22T05:12:53.446Z,11.71
2018-09-22T05:15:22.602Z,11.61
2018-09-22T05:17:51.577Z,11.68
2018-09-22T05:20:20.640Z,11.66
2018-09-22T05:22:49.606Z,11.69
2018-09-22T05:25:18.587Z,11.69
2018-09-22T05:27:47.565Z,11.68
2018-09-22T05:30:16.557Z,11.60
2018-09-22T05:32:45.607Z,11.61
2018-09-22T05:35:14.585Z,11.66
2018-09-22T05:37:43.666Z,11.68
2018-09-22T05:40:12.690Z,11.69
2018-09-22T05:42:41.750Z,11.67
2018-09-22T05:45:10.754Z,11.73
2018-09-22T05:47:39.741Z,11.78
2018-09-22T05:50:08.725Z,11.79
2018-09-22T05:52:37.754Z,11.82
2018-09-22T05:55:06.722Z,11.78
2018-09-22T05:57:35.814Z,11.76
2018-09-22T06:00:04.966Z,11.85
2018-09-22T06:02:33.946Z,11.94
2018-09-22T06:05:02.939Z,11.99
2018-09-22T06:07:31.941Z,11.99
2018-09-22T06:10:01.011Z,12.01
2018-09-22T06:12:30.245Z,12.13
2018-09-22T06:14:59.205Z,12.11
2018-09-22T06:17:28.222Z,12.08
2018-09-22T06:19:57.185Z,12.20
2018-09-22T06:22:26.168Z,12.14
2018-09-22T06:24:55.137Z,12.22
2018-09-22T06:27:24.171Z,12.12
2018-09-22T06:29:53.169Z,12.17
2018-09-22T06:32:22.162Z,12.19
2018-09-22T06:34:51.167Z,12.32
2018-09-22T06:37:20.151Z,12.39
2018-09-22T06:39:49.121Z,12.39
2018-09-22T06:42:18.109Z,12.46
2018-09-22T06:44:47.086Z,12.51
2018-09-22T06:47:16.079Z,12.48
2018-09-22T06:49:45.050Z,12.47
2018-09-22T06:52:14.062Z,12.62
2018-09-22T06:54:43.027Z,12.66
2018-09-22T06:57:11.982Z,12.75
2018-09-22T06:59:40.953Z,12.80
2018-09-22T07:02:09.937Z,12.88
2018-09-22T07:04:39.368Z,13.05
2018-09-22T07:07:09.243Z,12.87
2018-09-22T07:09:38.278Z,12.97
2018-09-22T07:12:07.373Z,12.94
2018-09-22T07:14:36.357Z,13.00
2018-09-22T07:17:05.339Z,13.17
2018-09-22T07:19:34.382Z,13.02
2018-09-22T07:22:08.499Z,13.15
2018-09-22T07:24:37.469Z,13.16
2018-09-22T07:27:06.450Z,13.37
2018-09-22T07:29:35.446Z,13.39
2018-09-22T07:32:04.443Z,13.42
2018-09-22T07:34:33.433Z,13.46
2018-09-22T07:37:02.521Z,13.49
2018-09-22T07:39:31.504Z,13.39
2018-09-22T07:42:00.469Z,13.55
2018-09-22T07:44:29.441Z,13.67
2018-09-22T07:46:58.445Z,13.61
2018-09-22T07:49:27.845Z,13.83
2018-09-22T07:51:56.885Z,13.65
2018-09-22T07:54:25.945Z,13.36
2018-09-22T07:56:54.979Z,13.72
2018-09-22T07:59:23.958Z,13.82
2018-09-22T08:01:52.981Z,13.87
2018-09-22T08:04:22.046Z,13.96
2018-09-22T08:06:51.054Z,14.21
2018-09-22T08:09:20.084Z,14.12
2018-09-22T08:11:49.226Z,14.21
2018-09-22T08:14:18.161Z,14.24
2018-09-22T08:16:47.429Z,14.37
2018-09-22T08:19:16.427Z,14.23
2018-09-22T08:21:45.413Z,14.26
2018-09-22T08:24:14.425Z,14.14
2018-09-22T08:26:43.497Z,14.48
2018-09-22T08:29:12.624Z,14.42
2018-09-22T08:31:41.690Z,14.55
2018-09-22T08:34:10.687Z,14.49
2018-09-22T08:36:39.846Z,14.72
2018-09-22T08:39:09.928Z,14.74
2018-09-22T08:41:38.938Z,14.70
2018-09-22T08:44:08.101Z,14.71
2018-09-22T08:46:37.325Z,14.55
2018-09-22T08:49:06.541Z,14.72
2018-09-22T08:51:35.760Z,14.88
2018-09-22T08:54:04.797Z,15.17
2018-09-22T08:56:33.774Z,15.17
2018-09-22T08:59:02.775Z,15.13
2018-09-22T09:01:31.762Z,15.15
2018-09-22T09:04:00.815Z,15.10
2018-09-22T09:06:29.815Z,15.24
2018-09-22T09:08:58.881Z,15.33
2018-09-22T09:11:27.974Z,15.38
2018-09-22T09:13:56.890Z,15.42
2018-09-22T09:16:25.870Z,15.49
2018-09-22T09:18:55.121Z,15.58
2018-09-22T09:21:24.106Z,15.70
2018-09-22T09:23:53.139Z,15.63
2018-09-22T09:26:22.186Z,15.78
2018-09-22T09:28:51.164Z,15.91
2018-09-22T09:31:20.174Z,15.96
2018-09-22T09:33:49.786Z,15.81
2018-09-22T09:36:19.159Z,15.63
2018-09-22T09:38:48.152Z,15.90
2018-09-22T09:41:17.146Z,16.03
2018-09-22T09:43:46.176Z,16.00
2018-09-22T09:46:15.114Z,16.03
2018-09-22T09:48:44.108Z,16.07
2018-09-22T09:51:13.089Z,16.04
2018-09-22T09:53:42.082Z,16.16
2018-09-22T09:56:11.097Z,16.27
2018-09-22T09:58:40.080Z,16.30
2018-09-22T10:01:09.154Z,16.30
2018-09-22T10:03:38.161Z,16.46
2018-09-22T10:06:07.229Z,16.61
2018-09-22T10:08:36.225Z,16.77
2018-09-22T10:11:05.370Z,16.61
2018-09-22T10:13:34.399Z,16.92
2018-09-22T10:16:03.390Z,16.83
2018-09-22T10:18:32.413Z,16.88
2018-09-22T10:21:01.397Z,16.96
2018-09-22T10:23:30.541Z,17.13
2018-09-22T10:25:59.538Z,17.31
2018-09-22T10:28:28.579Z,17.46
2018-09-22T10:30:57.550Z,17.61
2018-09-22T10:33:26.545Z,17.97
2018-09-22T10:35:55.803Z,18.00
2018-09-22T10:38:24.807Z,18.27
2018-09-22T10:40:53.781Z,18.53
2018-09-22T10:43:22.781Z,18.54
2018-09-22T10:45:51.757Z,18.63
2018-09-22T10:48:20.745Z,18.84
2018-09-22T10:50:49.784Z,18.89
2018-09-22T10:53:18.759Z,18.85
2018-09-22T10:55:47.771Z,18.88
2018-09-22T10:58:16.717Z,19.05
2018-09-22T11:00:45.718Z,19.30
2018-09-22T11:03:14.716Z,18.80
2018-09-22T11:05:43.705Z,18.61
2018-09-22T11:08:12.685Z,18.87
2018-09-22T11:10:41.701Z,18.92
2018-09-22T11:13:10.734Z,18.27
2018-09-22T11:15:39.690Z,18.35
2018-09-22T11:18:15.154Z,18.52
2018-09-22T11:20:44.161Z,18.61
2018-09-22T11:23:13.138Z,18.60
2018-09-22T11:25:42.121Z,18.85
2018-09-22T11:28:11.157Z,18.99
2018-09-22T11:30:40.142Z,19.28
2018-09-22T11:33:09.146Z,19.25
2018-09-22T11:35:38.129Z,19.11
2018-09-22T11:38:07.115Z,18.77
2018-09-22T11:40:36.097Z,18.54
2018-09-22T11:43:05.074Z,18.35
2018-09-22T11:45:34.061Z,18.41
2018-09-22T11:48:03.037Z,18.32
2018-09-22T11:50:32.101Z,18.64
2018-09-22T11:53:01.084Z,19.11
2018-09-22T11:55:30.071Z,19.02
2018-09-22T11:57:59.063Z,19.00
2018-09-22T12:00:28.060Z,19.21
2018-09-22T12:02:57.042Z,18.80
2018-09-22T12:05:26.040Z,18.75
2018-09-22T12:07:55.005Z,18.68
2018-09-22T12:10:24.006Z,18.65
2018-09-22T12:12:52.978Z,18.66
2018-09-22T12:15:21.974Z,18.49
2018-09-22T12:17:51.085Z,18.45
2018-09-22T12:20:20.078Z,18.35
2018-09-22T12:22:49.069Z,18.42
2018-09-22T12:25:18.086Z,18.47
2018-09-22T12:27:47.157Z,18.46
2018-09-22T12:30:16.166Z,18.50
2018-09-22T12:32:45.153Z,18.48
2018-09-22T12:35:14.190Z,18.64
2018-09-22T12:37:43.173Z,18.41
2018-09-22T12:40:12.219Z,18.43
2018-09-22T12:42:41.212Z,18.38
2018-09-22T12:45:10.208Z,18.54
2018-09-22T12:47:39.174Z,18.76
2018-09-22T12:50:08.189Z,18.94
2018-09-22T12:52:37.192Z,18.86
2018-09-22T12:55:06.181Z,18.95
2018-09-22T12:57:35.246Z,18.64
2018-09-22T13:00:04.263Z,18.64
2018-09-22T13:02:33.269Z,18.72
2018-09-22T13:05:02.270Z,18.78
2018-09-22T13:07:31.255Z,18.59
2018-09-22T13:10:00.632Z,18.74
2018-09-22T13:12:29.618Z,18.84
2018-09-22T13:14:58.667Z,18.79
2018-09-22T13:17:27.678Z,18.65
2018-09-22T13:19:57.419Z,18.76
2018-09-22T13:22:26.414Z,18.65
2018-09-22T13:24:55.389Z,18.73
2018-09-22T13:27:24.401Z,19.01
2018-09-22T13:29:53.382Z,19.20
2018-09-22T13:32:22.373Z,19.76
2018-09-22T13:34:51.377Z,19.80
2018-09-22T13:37:20.417Z,19.86
2018-09-22T13:39:49.326Z,19.82
2018-09-22T13:42:18.538Z,19.50
2018-09-22T13:44:47.517Z,19.40
2018-09-22T13:47:16.527Z,19.50
2018-09-22T13:49:45.492Z,19.63
2018-09-22T13:52:14.482Z,19.58
2018-09-22T13:54:43.464Z,19.62
2018-09-22T13:57:12.450Z,19.58
2018-09-22T13:59:41.437Z,19.22
2018-09-22T14:02:10.533Z,19.17
2018-09-22T14:04:39.506Z,19.38
2018-09-22T14:07:08.521Z,19.34
2018-09-22T14:09:37.505Z,19.45
2018-09-22T14:12:06.757Z,19.21
2018-09-22T14:14:35.815Z,19.01
2018-09-22T14:17:04.874Z,19.06
2018-09-22T14:19:33.846Z,19.05
2018-09-22T14:22:02.964Z,19.08
2018-09-22T14:24:31.938Z,18.82
2018-09-22T14:27:01.002Z,18.95
2018-09-22T14:29:30.041Z,18.83
2018-09-22T14:31:58.981Z,18.88
2018-09-22T14:34:27.961Z,18.95
2018-09-22T14:36:56.997Z,19.03
2018-09-22T14:39:25.970Z,19.06
2018-09-22T14:41:54.964Z,19.00
2018-09-22T14:44:24.002Z,19.02
2018-09-22T14:46:52.986Z,19.13
2018-09-22T14:49:22.015Z,19.12
2018-09-22T14:51:51.002Z,18.91
2018-09-22T14:54:20.001Z,18.89
2018-09-22T14:56:48.977Z,18.75
2018-09-22T14:59:18.014Z,18.69
2018-09-22T15:01:46.998Z,18.66
2018-09-22T15:04:15.986Z,18.64
2018-09-22T15:06:44.982Z,18.55
2018-09-22T15:09:13.995Z,18.57
2018-09-22T15:11:42.986Z,18.51
2018-09-22T15:14:11.965Z,18.44
2018-09-22T15:16:40.958Z,18.32
2018-09-22T15:19:09.945Z,18.46
2018-09-22T15:21:38.934Z,18.47
2018-09-22T15:24:07.930Z,18.35
2018-09-22T15:26:36.921Z,18.43
2018-09-22T15:29:05.960Z,18.47
2018-09-22T15:31:35.017Z,18.34
2018-09-22T15:34:03.966Z,18.41
2018-09-22T15:36:32.975Z,18.44
2018-09-22T15:39:01.981Z,18.31
2018-09-22T15:41:31.082Z,18.30
2018-09-22T15:44:00.130Z,18.21
2018-09-22T15:46:29.148Z,18.12
2018-09-22T15:48:58.129Z,18.12
2018-09-22T15:51:28.256Z,18.18
2018-09-22T15:53:58.118Z,18.13
2018-09-22T15:56:27.105Z,18.18
2018-09-22T15:58:56.120Z,18.06
2018-09-22T16:01:25.097Z,17.99
2018-09-22T16:03:54.098Z,18.01
2018-09-22T16:06:23.089Z,17.92
2018-09-22T16:08:52.989Z,18.02
2018-09-22T16:11:21.958Z,17.99
2018-09-22T16:13:50.954Z,17.93
2018-09-22T16:16:19.986Z,17.83
2018-09-22T16:18:48.981Z,17.87
2018-09-22T16:21:17.965Z,17.84
2018-09-22T16:23:46.999Z,17.67
2018-09-22T16:26:15.973Z,17.55
2018-09-22T16:28:44.970Z,17.54
2018-09-22T16:31:13.949Z,17.49
2018-09-22T16:33:42.938Z,17.46
2018-09-22T16:36:11.929Z,17.43
2018-09-22T16:38:41.036Z,17.47
2018-09-22T16:41:10.070Z,17.56
2018-09-22T16:43:39.625Z,17.57
2018-09-22T16:46:08.659Z,17.57
2018-09-22T16:48:37.715Z,17.50
2018-09-22T16:51:06.645Z,17.48
2018-09-22T16:53:35.633Z,17.45
2018-09-22T16:56:04.646Z,17.42
2018-09-22T16:58:33.700Z,17.31
2018-09-22T17:01:02.619Z,17.22
2018-09-22T17:03:31.601Z,17.26
2018-09-22T17:06:00.579Z,17.21
2018-09-22T17:08:29.571Z,17.17
2018-09-22T17:10:58.536Z,17.12
2018-09-22T17:13:27.569Z,16.96
2018-09-22T17:15:56.539Z,16.92
2018-09-22T17:18:25.558Z,16.89
2018-09-22T17:20:54.538Z,16.85
2018-09-22T17:23:23.533Z,16.81
2018-09-22T17:25:52.518Z,16.82
2018-09-22T17:28:21.522Z,16.86
2018-09-22T17:30:50.758Z,16.81
2018-09-22T17:33:19.796Z,16.77
2018-09-22T17:35:48.761Z,16.73
2018-09-22T17:38:17.746Z,16.70
2018-09-22T17:40:46.724Z,16.64
2018-09-22T17:43:15.781Z,16.57
2018-09-22T17:45:44.702Z,16.41
2018-09-22T17:48:13.701Z,15.82
2018-09-22T17:50:42.669Z,15.43
2018-09-22T17:53:11.664Z,14.95
2018-09-22T17:55:41.014Z,14.49
2018-09-22T17:58:10.003Z,14.31
2018-09-22T18:00:39.002Z,14.03
2018-09-22T18:03:08.009Z,13.80
2018-09-22T18:05:36.989Z,13.66
2018-09-22T18:08:06.094Z,13.68
2018-09-22T18:10:35.078Z,13.83
2018-09-22T18:13:04.071Z,13.64
2018-09-22T18:15:33.134Z,13.57
2018-09-22T18:18:02.122Z,13.40
2018-09-22T18:20:31.138Z,13.37
2018-09-22T18:23:00.133Z,13.19
2018-09-22T18:25:29.135Z,13.09
2018-09-22T18:27:58.128Z,13.04
2018-09-22T18:30:27.152Z,12.93
2018-09-22T18:32:56.133Z,12.93
2018-09-22T18:35:25.122Z,12.85
2018-09-22T18:37:54.092Z,12.84
2018-09-22T18:40:23.183Z,12.74
2018-09-22T18:42:52.146Z,12.76
2018-09-22T18:45:21.134Z,12.78
2018-09-22T18:47:50.113Z,12.83
2018-09-22T18:50:19.085Z,12.70
2018-09-22T18:52:48.069Z,12.69
2018-09-22T18:55:17.193Z,12.72
2018-09-22T18:57:46.189Z,12.60
2018-09-22T19:00:15.198Z,12.56
2018-09-22T19:02:44.209Z,12.68
2018-09-22T19:05:13.201Z,12.63
2018-09-22T19:07:42.523Z,12.66
2018-09-22T19:10:11.511Z,12.63
2018-09-22T19:12:40.585Z,12.55
2018-09-22T19:15:44.417Z,12.54
2018-09-22T19:19:16.615Z,12.49
2018-09-22T19:21:53.954Z,12.53
2018-09-22T19:24:26.921Z,12.53
2018-09-22T19:27:00.697Z,12.49
2018-09-22T19:29:34.355Z,12.50
2018-09-22T19:32:21.669Z,12.39
2018-09-22T19:34:54.850Z,12.47
2018-09-22T19:37:27.354Z,12.46
2018-09-22T19:40:14.582Z,12.46
2018-09-22T19:42:48.390Z,12.46
2018-09-22T19:45:20.582Z,12.44
2018-09-22T19:47:59.193Z,12.43
2018-09-22T19:50:32.865Z,12.46
2018-09-22T19:53:01.890Z,12.43
2018-09-22T19:55:30.893Z,12.39
2018-09-22T19:57:59.970Z,12.39
2018-09-22T20:00:28.871Z,12.44
2018-09-22T20:02:57.859Z,12.42
2018-09-22T20:05:26.840Z,12.42
2018-09-22T20:07:55.814Z,12.49
2018-09-22T20:10:24.790Z,12.56
2018-09-22T20:12:53.764Z,12.52
2018-09-22T20:15:22.742Z,12.48
2018-09-22T20:17:51.826Z,12.44
2018-09-22T20:20:20.808Z,12.37
2018-09-22T20:22:49.794Z,12.43
2018-09-22T20:25:18.773Z,12.47
2018-09-22T20:27:47.789Z,12.44
2018-09-22T20:30:16.789Z,12.48
2018-09-22T20:32:45.837Z,12.39
2018-09-22T20:35:14.809Z,12.32
2018-09-22T20:37:44.377Z,12.35
2018-09-22T20:40:13.346Z,12.28
2018-09-22T20:42:42.422Z,12.17
2018-09-22T20:45:12.408Z,12.20
2018-09-22T20:47:41.470Z,12.22
2018-09-22T20:50:10.582Z,12.19
2018-09-22T20:52:39.653Z,12.15
2018-09-22T20:55:08.621Z,12.11
2018-09-22T20:57:37.613Z,12.05
2018-09-22T21:00:07.699Z,12.06
2018-09-22T21:02:36.711Z,12.07
2018-09-22T21:05:05.702Z,12.15
2018-09-22T21:07:35.006Z,12.17
2018-09-22T21:10:04.137Z,12.25
2018-09-22T21:12:33.131Z,12.26
2018-09-22T21:15:02.102Z,12.30
2018-09-22T21:17:31.098Z,12.30
2018-09-22T21:20:00.075Z,12.26
2018-09-22T21:22:29.066Z,12.30
2018-09-22T21:24:58.154Z,12.30
2018-09-22T21:27:27.178Z,12.23
2018-09-22T21:29:56.154Z,12.24
2018-09-22T21:32:25.130Z,12.17
2018-09-22T21:34:54.104Z,12.20
2018-09-22T21:37:23.089Z,12.19
2018-09-22T21:39:52.057Z,12.20
2018-09-22T21:42:21.166Z,12.13
2018-09-22T21:44:50.158Z,12.13
2018-09-22T21:47:19.138Z,12.13
2018-09-22T21:49:48.510Z,12.12
2018-09-22T21:52:17.526Z,12.05
2018-09-22T21:54:46.542Z,12.08
2018-09-22T21:57:15.513Z,12.14
2018-09-22T21:59:44.832Z,12.16
2018-09-22T22:02:13.894Z,12.13
2018-09-22T22:04:42.861Z,12.15
2018-09-22T22:07:11.849Z,12.16
2018-09-22T22:09:40.824Z,12.18
2018-09-22T22:12:09.802Z,12.13
2018-09-22T22:14:38.790Z,12.13
2018-09-22T22:17:07.781Z,12.12
2018-09-22T22:19:36.773Z,12.13
2018-09-22T22:22:05.832Z,12.09
2018-09-22T22:24:34.946Z,12.13
2018-09-22T22:27:03.995Z,12.11
2018-09-22T22:29:32.969Z,12.13
2018-09-22T22:32:02.145Z,12.12
2018-09-22T22:34:31.230Z,12.10
2018-09-22T22:37:00.274Z,12.15
2018-09-22T22:39:29.250Z,12.14
2018-09-22T22:41:58.281Z,12.12
2018-09-22T22:44:27.316Z,12.15
2018-09-22T22:46:56.244Z,12.17
2018-09-22T22:49:25.251Z,12.17
2018-09-22T22:51:54.230Z,12.15
2018-09-22T22:54:23.261Z,12.16
2018-09-22T22:56:52.273Z,12.14
2018-09-22T22:59:21.257Z,12.07
2018-09-22T23:01:50.341Z,12.06
2018-09-22T23:04:19.325Z,12.07
2018-09-22T23:06:48.406Z,12.03
2018-09-22T23:09:17.393Z,12.03
2018-09-22T23:11:46.581Z,12.18
2018-09-22T23:14:15.555Z,12.11
2018-09-22T23:16:44.513Z,11.99
2018-09-22T23:19:13.513Z,11.95
2018-09-22T23:21:42.482Z,11.99
2018-09-22T23:24:11.469Z,11.89
2018-09-22T23:26:40.438Z,11.90
2018-09-22T23:29:09.422Z,11.99
2018-09-22T23:31:38.486Z,12.12
2018-09-22T23:34:07.468Z,12.12
2018-09-22T23:36:36.438Z,12.20
2018-09-22T23:39:07.329Z,12.21
2018-09-22T23:41:36.306Z,12.22
2018-09-22T23:44:05.301Z,12.26
2018-09-22T23:46:34.281Z,12.21
2018-09-22T23:49:03.277Z,12.23
2018-09-22T23:51:32.486Z,12.30
2018-09-22T23:54:01.470Z,12.34
2018-09-22T23:56:30.486Z,12.36
2018-09-22T23:58:59.481Z,12.33
